createdAt,value
2023-04-19T00:01:32.809Z,9.31
2023-04-19T00:04:00.216Z,9.21
2023-04-19T00:06:30.849Z,8.98
2023-04-19T00:09:01.184Z,9.21
2023-04-19T00:11:28.151Z,9.22
2023-04-19T00:17:11.894Z,8.95
2023-04-19T00:22:41.238Z,9.20
2023-04-19T00:25:08.666Z,8.92
2023-04-19T00:27:36.070Z,9.14
2023-04-19T00:30:03.265Z,9.13
2023-04-19T00:32:33.834Z,8.76
2023-04-19T00:35:01.260Z,8.93
2023-04-19T00:37:29.038Z,8.83
2023-04-19T00:39:56.158Z,8.80
2023-04-19T00:42:23.262Z,9.04
2023-04-19T00:44:50.265Z,8.88
2023-04-19T00:47:17.642Z,8.98
2023-04-19T00:49:46.809Z,8.84
2023-04-19T00:52:14.382Z,9.02
2023-04-19T00:54:45.270Z,8.77
2023-04-19T00:57:14.153Z,8.84
2023-04-19T00:59:41.739Z,8.92
2023-04-19T01:02:10.102Z,8.84
2023-04-19T01:04:37.467Z,8.75
2023-04-19T01:07:05.079Z,8.80
2023-04-19T01:09:32.253Z,8.78
2023-04-19T01:12:00.395Z,8.54
2023-04-19T01:14:27.643Z,8.69
2023-04-19T01:16:54.815Z,8.54
2023-04-19T01:19:21.926Z,7.99
2023-04-19T01:21:49.189Z,8.48
2023-04-19T01:24:24.011Z,8.58
2023-04-19T01:26:53.745Z,8.58
2023-04-19T01:29:22.275Z,8.55
2023-04-19T01:31:54.007Z,8.51
2023-04-19T01:34:23.245Z,8.50
2023-04-19T01:36:51.709Z,8.45
2023-04-19T01:39:35.904Z,8.42
2023-04-19T01:42:04.816Z,8.43
2023-04-19T01:44:32.730Z,8.25
2023-04-19T01:47:01.792Z,8.32
2023-04-19T01:49:33.309Z,8.31
2023-04-19T01:52:01.591Z,8.17
2023-04-19T01:54:28.720Z,8.24
2023-04-19T01:56:56.075Z,8.10
2023-04-19T01:59:23.181Z,8.12
2023-04-19T02:01:51.424Z,8.21
2023-04-19T02:04:21.467Z,8.14
2023-04-19T02:06:48.652Z,8.08
2023-04-19T02:09:16.242Z,8.07
2023-04-19T02:11:46.150Z,7.98
2023-04-19T02:14:13.528Z,7.93
2023-04-19T02:16:40.922Z,7.89
2023-04-19T02:19:08.093Z,7.96
2023-04-19T02:21:35.296Z,7.82
2023-04-19T02:24:02.564Z,7.80
2023-04-19T02:26:29.896Z,7.77
2023-04-19T02:28:57.071Z,7.93
2023-04-19T02:31:24.321Z,7.72
2023-04-19T02:34:01.142Z,7.81
2023-04-19T02:36:36.699Z,7.65
2023-04-19T02:39:10.430Z,7.74
2023-04-19T02:41:39.546Z,7.63
2023-04-19T02:44:06.719Z,7.70
2023-04-19T02:46:35.133Z,7.57
2023-04-19T02:49:02.394Z,7.46
2023-04-19T02:51:30.283Z,7.53
2023-04-19T02:53:57.768Z,7.58
2023-04-19T02:56:25.076Z,7.38
2023-04-19T02:58:54.765Z,7.56
2023-04-19T03:01:22.182Z,7.42
2023-04-19T03:03:49.420Z,7.42
2023-04-19T03:06:17.282Z,7.36
2023-04-19T03:08:47.358Z,7.25
2023-04-19T03:11:19.903Z,7.31
2023-04-19T03:13:48.050Z,7.49
2023-04-19T03:16:15.616Z,7.49
2023-04-19T03:18:43.817Z,7.54
2023-04-19T03:21:12.545Z,7.48
2023-04-19T03:23:54.787Z,7.39
2023-04-19T03:26:23.050Z,7.58
2023-04-19T03:28:53.645Z,7.38
2023-04-19T03:31:40.197Z,7.66
2023-04-19T03:34:10.670Z,7.69
2023-04-19T03:36:42.622Z,7.45
2023-04-19T03:39:09.688Z,7.52
2023-04-19T03:41:40.560Z,7.67
2023-04-19T03:44:24.507Z,7.73
2023-04-19T03:46:52.167Z,7.71
2023-04-19T03:49:23.688Z,7.65
2023-04-19T03:51:58.225Z,7.76
2023-04-19T03:54:27.483Z,7.78
2023-04-19T03:56:54.629Z,7.66
2023-04-19T03:59:22.208Z,7.87
2023-04-19T04:01:50.033Z,8.01
2023-04-19T04:04:18.392Z,7.92
2023-04-19T04:06:46.175Z,8.07
2023-04-19T04:09:16.411Z,8.05
2023-04-19T04:11:44.304Z,8.61
2023-04-19T04:14:12.204Z,8.45
2023-04-19T04:16:39.945Z,8.73
2023-04-19T04:19:08.029Z,8.80
2023-04-19T04:21:38.400Z,8.84
2023-04-19T04:24:08.033Z,8.85
2023-04-19T04:26:42.480Z,9.30
2023-04-19T04:29:39.437Z,9.66
2023-04-19T04:32:10.774Z,9.99
2023-04-19T04:34:42.925Z,9.99
2023-04-19T04:37:14.287Z,9.86
2023-04-19T04:39:42.280Z,10.31
2023-04-19T04:42:11.040Z,10.11
2023-04-19T04:44:39.220Z,10.96
2023-04-19T04:47:07.879Z,11.19
2023-04-19T04:49:41.610Z,11.71
2023-04-19T04:52:13.872Z,11.90
2023-04-19T04:54:51.684Z,12.42
2023-04-19T04:57:25.618Z,12.47
2023-04-19T04:59:52.713Z,13.01
2023-04-19T05:02:22.733Z,12.96
2023-04-19T05:04:50.982Z,13.28
2023-04-19T05:07:18.192Z,13.22
2023-04-19T05:09:45.616Z,13.48
2023-04-19T05:12:17.381Z,13.60
2023-04-19T05:14:44.770Z,13.22
2023-04-19T05:17:12.065Z,13.38
2023-04-19T05:19:39.492Z,13.32
2023-04-19T05:22:07.829Z,13.17
2023-04-19T05:24:36.705Z,13.32
2023-04-19T05:27:03.967Z,13.76
2023-04-19T05:29:32.221Z,13.95
2023-04-19T05:31:59.579Z,14.21
2023-04-19T05:34:33.363Z,14.50
2023-04-19T05:37:01.168Z,14.91
2023-04-19T05:39:28.448Z,15.01
2023-04-19T05:41:55.739Z,15.35
2023-04-19T05:44:22.935Z,15.63
2023-04-19T05:46:49.982Z,15.66
2023-04-19T05:49:30.175Z,15.84
2023-04-19T05:52:02.694Z,15.99
2023-04-19T05:54:56.003Z,15.74
2023-04-19T05:57:23.205Z,15.90
2023-04-19T05:59:50.567Z,15.93
2023-04-19T06:02:21.936Z,16.18
2023-04-19T06:04:49.718Z,16.23
2023-04-19T06:07:30.800Z,16.23
2023-04-19T06:10:00.261Z,16.21
2023-04-19T06:12:27.531Z,16.04
2023-04-19T06:14:54.909Z,15.96
2023-04-19T06:17:25.723Z,16.31
2023-04-19T06:19:53.959Z,16.35
2023-04-19T06:22:21.525Z,16.30
2023-04-19T06:24:49.354Z,16.53
2023-04-19T06:27:17.071Z,16.67
2023-04-19T06:29:44.072Z,16.55
2023-04-19T06:32:11.828Z,16.85
2023-04-19T06:34:39.681Z,16.92
2023-04-19T06:37:06.912Z,17.26
2023-04-19T06:39:34.225Z,17.35
2023-04-19T06:42:02.535Z,17.23
2023-04-19T06:44:29.822Z,16.80
2023-04-19T06:46:57.139Z,16.57
2023-04-19T06:49:24.461Z,16.67
2023-04-19T06:51:51.755Z,16.52
2023-04-19T06:54:19.051Z,17.08
2023-04-19T06:56:48.225Z,17.23
2023-04-19T06:59:19.412Z,17.27
2023-04-19T07:01:48.284Z,17.36
2023-04-19T07:04:16.496Z,17.48
2023-04-19T07:06:44.052Z,17.85
2023-04-19T07:09:26.405Z,17.90
2023-04-19T07:11:57.786Z,17.10
2023-04-19T07:14:25.148Z,17.18
2023-04-19T07:16:53.865Z,17.39
2023-04-19T07:19:22.834Z,17.83
2023-04-19T07:21:50.867Z,17.90
2023-04-19T07:24:18.590Z,17.75
2023-04-19T07:26:46.228Z,18.03
2023-04-19T07:29:13.961Z,17.87
2023-04-19T07:31:42.153Z,18.05
2023-04-19T07:34:10.997Z,18.14
2023-04-19T07:36:39.150Z,17.80
2023-04-19T07:39:06.353Z,18.21
2023-04-19T07:41:34.913Z,19.54
2023-04-19T07:44:03.343Z,20.12
2023-04-19T07:46:30.508Z,20.18
2023-04-19T07:48:57.811Z,20.42
2023-04-19T07:51:25.368Z,19.82
2023-04-19T07:53:52.820Z,19.52
2023-04-19T07:56:20.360Z,19.09
2023-04-19T07:58:56.490Z,19.82
2023-04-19T08:01:32.982Z,20.31
2023-04-19T08:04:00.887Z,20.75
2023-04-19T08:06:29.916Z,20.67
2023-04-19T08:08:57.107Z,20.91
2023-04-19T08:11:25.396Z,20.88
2023-04-19T08:14:04.745Z,21.08
2023-04-19T08:19:07.184Z,22.06
2023-04-19T08:21:40.519Z,22.36
2023-04-19T08:24:08.849Z,22.66
2023-04-19T08:26:36.016Z,22.80
2023-04-19T08:29:03.309Z,22.94
2023-04-19T08:31:30.723Z,22.46
2023-04-19T08:33:58.782Z,21.41
2023-04-19T08:36:37.090Z,21.12
2023-04-19T08:39:17.760Z,21.25
2023-04-19T08:41:56.076Z,21.41
2023-04-19T08:44:36.761Z,21.59
2023-04-19T08:47:05.856Z,22.00
2023-04-19T08:49:41.956Z,22.00
2023-04-19T08:52:13.532Z,21.50
2023-04-19T08:54:41.812Z,21.47
2023-04-19T08:57:09.422Z,21.36
2023-04-19T08:59:36.547Z,21.28
2023-04-19T09:02:04.211Z,21.65
2023-04-19T09:04:36.968Z,21.74
2023-04-19T09:07:04.921Z,21.64
2023-04-19T09:09:39.092Z,21.76
2023-04-19T09:12:18.492Z,21.53
2023-04-19T09:15:01.294Z,21.57
2023-04-19T09:17:41.449Z,21.48
2023-04-19T09:20:08.867Z,21.36
2023-04-19T09:22:36.199Z,21.54
2023-04-19T09:25:35.375Z,21.92
2023-04-19T09:27:50.702Z,22.07
2023-04-19T09:30:32.368Z,22.24
2023-04-19T09:33:01.996Z,22.51
2023-04-19T09:35:48.429Z,22.76
2023-04-19T09:38:17.460Z,22.89
2023-04-19T09:40:44.881Z,22.81
2023-04-19T09:43:45.197Z,23.13
2023-04-19T09:45:59.367Z,23.72
2023-04-19T09:48:26.766Z,24.11
2023-04-19T09:51:02.498Z,24.36
2023-04-19T09:53:36.851Z,24.14
2023-04-19T09:56:06.389Z,24.07
2023-04-19T09:58:46.826Z,24.07
2023-04-19T10:01:19.294Z,24.50
2023-04-19T10:03:49.903Z,24.25
2023-04-19T10:11:38.873Z,23.60
2023-04-19T10:14:11.848Z,22.95
2023-04-19T10:16:39.555Z,22.55
2023-04-19T10:19:12.483Z,23.28
2023-04-19T10:21:42.448Z,23.64
2023-04-19T10:24:34.215Z,23.44
2023-04-19T10:27:08.911Z,23.90
2023-04-19T10:29:54.720Z,24.12
2023-04-19T10:32:22.808Z,24.44
2023-04-19T10:34:52.993Z,24.59
2023-04-19T10:37:26.241Z,24.83
2023-04-19T10:39:53.412Z,24.92
2023-04-19T10:42:20.641Z,24.29
2023-04-19T10:45:25.206Z,24.70
2023-04-19T10:47:52.683Z,24.74
2023-04-19T10:50:19.894Z,24.81
2023-04-19T10:52:46.967Z,24.91
2023-04-19T10:55:18.354Z,25.04
2023-04-19T10:58:05.297Z,25.92
2023-04-19T11:00:33.815Z,26.41
2023-04-19T11:03:20.980Z,27.00
2023-04-19T11:06:27.336Z,27.47
2023-04-19T11:08:55.284Z,28.22
2023-04-19T11:11:22.621Z,28.55
2023-04-19T11:13:49.762Z,28.26
2023-04-19T11:16:19.006Z,28.55
2023-04-19T11:18:46.626Z,28.57
2023-04-19T11:21:17.349Z,28.22
2023-04-19T11:23:50.651Z,28.27
2023-04-19T11:26:17.984Z,28.36
2023-04-19T11:28:45.301Z,28.07
2023-04-19T11:31:12.670Z,28.30
2023-04-19T11:33:40.008Z,28.45
2023-04-19T11:36:13.530Z,28.71
2023-04-19T11:38:41.229Z,29.29
2023-04-19T11:41:08.969Z,29.96
2023-04-19T11:43:37.133Z,30.19
2023-04-19T11:46:12.127Z,29.93
2023-04-19T11:48:49.691Z,29.77
2023-04-19T11:51:17.047Z,30.05
2023-04-19T11:53:44.462Z,29.95
2023-04-19T11:56:11.818Z,28.55
2023-04-19T11:58:43.966Z,27.63
2023-04-19T12:01:13.411Z,27.53
2023-04-19T12:03:49.805Z,28.43
2023-04-19T12:06:19.602Z,27.77
2023-04-19T12:08:47.978Z,26.58
2023-04-19T12:11:16.441Z,25.18
2023-04-19T12:13:44.737Z,23.26
2023-04-19T12:16:12.912Z,22.07
2023-04-19T12:18:51.768Z,23.46
2023-04-19T12:21:45.652Z,25.25
2023-04-19T12:24:15.334Z,25.61
2023-04-19T12:26:57.064Z,25.96
2023-04-19T12:29:24.765Z,26.37
2023-04-19T12:31:52.319Z,26.63
2023-04-19T12:34:19.790Z,27.33
2023-04-19T12:36:47.166Z,28.19
2023-04-19T12:39:14.472Z,29.07
2023-04-19T12:41:42.108Z,29.72
2023-04-19T12:44:09.415Z,30.32
2023-04-19T12:46:37.219Z,29.99
2023-04-19T12:49:04.683Z,28.83
2023-04-19T12:51:32.929Z,27.07
2023-04-19T12:54:00.285Z,25.08
2023-04-19T12:56:27.524Z,24.43
2023-04-19T12:58:54.659Z,23.35
2023-04-19T13:01:22.255Z,22.32
2023-04-19T13:03:49.637Z,21.45
2023-04-19T13:06:42.124Z,21.00
2023-04-19T13:09:25.173Z,20.02
2023-04-19T13:11:55.677Z,19.95
2023-04-19T13:14:22.812Z,19.87
2023-04-19T13:16:50.275Z,19.37
2023-04-19T13:19:17.431Z,19.47
2023-04-19T13:21:44.609Z,19.10
2023-04-19T13:24:11.927Z,19.00
2023-04-19T13:26:39.394Z,18.58
2023-04-19T13:29:08.549Z,18.71
2023-04-19T13:31:35.848Z,18.24
2023-04-19T13:34:03.175Z,18.69
2023-04-19T13:36:30.251Z,18.97
2023-04-19T13:38:57.338Z,19.21
2023-04-19T13:41:24.494Z,19.02
2023-04-19T13:43:51.610Z,19.02
2023-04-19T13:46:18.718Z,18.86
2023-04-19T13:48:45.945Z,18.76
2023-04-19T13:51:13.114Z,18.63
2023-04-19T13:53:41.040Z,18.44
2023-04-19T13:56:09.748Z,18.47
2023-04-19T13:58:37.542Z,18.50
2023-04-19T14:01:04.959Z,18.42
2023-04-19T14:03:32.792Z,18.49
2023-04-19T14:06:00.094Z,18.16
2023-04-19T14:08:27.329Z,18.96
2023-04-19T14:10:54.544Z,19.66
2023-04-19T14:13:21.740Z,19.33
2023-04-19T14:15:48.818Z,18.72
2023-04-19T14:18:16.161Z,19.50
2023-04-19T14:20:43.310Z,19.92
2023-04-19T14:23:10.557Z,19.87
2023-04-19T14:25:37.826Z,19.56
2023-04-19T14:28:05.069Z,19.38
2023-04-19T14:30:32.409Z,18.84
2023-04-19T14:32:59.679Z,18.96
2023-04-19T14:35:27.729Z,18.64
2023-04-19T14:37:54.943Z,18.37
2023-04-19T14:40:22.854Z,18.38
2023-04-19T14:42:50.096Z,18.39
2023-04-19T14:45:20.878Z,18.52
2023-04-19T14:47:48.162Z,18.64
2023-04-19T14:50:15.311Z,18.67
2023-04-19T14:52:42.689Z,18.35
2023-04-19T14:55:10.915Z,18.07
2023-04-19T14:57:38.516Z,18.00
2023-04-19T15:00:06.298Z,17.83
2023-04-19T15:02:37.876Z,17.78
2023-04-19T15:05:08.073Z,17.65
2023-04-19T15:07:35.268Z,17.45
2023-04-19T15:10:02.261Z,17.05
2023-04-19T15:12:30.929Z,17.18
2023-04-19T15:14:57.991Z,17.16
2023-04-19T15:17:25.382Z,16.95
2023-04-19T15:19:52.772Z,16.83
2023-04-19T15:22:19.957Z,16.89
2023-04-19T15:24:47.314Z,16.56
2023-04-19T15:27:14.605Z,16.77
2023-04-19T15:29:42.244Z,16.86
2023-04-19T15:32:09.909Z,16.69
2023-04-19T15:34:37.494Z,16.87
2023-04-19T15:37:06.665Z,16.79
2023-04-19T15:39:33.598Z,16.59
2023-04-19T15:42:02.223Z,16.33
2023-04-19T15:44:30.832Z,16.09
2023-04-19T15:46:58.161Z,16.47
2023-04-19T15:49:25.534Z,16.35
2023-04-19T15:51:52.594Z,16.10
2023-04-19T15:54:22.416Z,16.34
2023-04-19T15:56:49.601Z,16.33
2023-04-19T15:59:17.085Z,16.22
2023-04-19T16:01:44.881Z,16.22
2023-04-19T16:04:12.173Z,16.14
2023-04-19T16:06:39.415Z,16.07
2023-04-19T16:09:07.796Z,15.64
2023-04-19T16:11:34.999Z,15.92
2023-04-19T16:14:02.279Z,15.73
2023-04-19T16:16:33.730Z,15.81
2023-04-19T16:19:01.114Z,15.95
2023-04-19T16:21:28.978Z,15.74
2023-04-19T16:23:56.310Z,15.55
2023-04-19T16:26:23.540Z,15.63
2023-04-19T16:28:50.937Z,15.38
2023-04-19T16:31:18.732Z,15.64
2023-04-19T16:33:46.299Z,15.57
2023-04-19T16:36:14.043Z,15.63
2023-04-19T16:38:41.797Z,15.43
2023-04-19T16:41:09.018Z,15.37
2023-04-19T16:43:37.029Z,15.24
2023-04-19T16:46:04.556Z,15.24
2023-04-19T16:48:31.644Z,15.19
2023-04-19T16:50:58.762Z,15.02
2023-04-19T16:53:26.178Z,14.98
2023-04-19T16:55:56.785Z,14.89
2023-04-19T16:58:27.217Z,14.70
2023-04-19T17:00:54.377Z,14.66
2023-04-19T17:03:22.212Z,14.62
2023-04-19T17:05:49.437Z,14.45
2023-04-19T17:08:16.624Z,14.57
2023-04-19T17:10:43.575Z,14.69
2023-04-19T17:13:11.198Z,14.71
2023-04-19T17:15:38.885Z,14.50
2023-04-19T17:18:06.184Z,14.61
2023-04-19T17:20:33.379Z,14.46
2023-04-19T17:23:00.446Z,14.56
2023-04-19T17:25:27.845Z,14.43
2023-04-19T17:27:54.940Z,14.32
2023-04-19T17:30:22.187Z,14.18
2023-04-19T17:32:49.312Z,14.15
2023-04-19T17:35:16.619Z,14.25
2023-04-19T17:37:43.891Z,14.15
2023-04-19T17:40:12.113Z,13.92
2023-04-19T17:42:39.483Z,13.80
2023-04-19T17:45:11.195Z,13.66
2023-04-19T17:47:39.818Z,13.70
2023-04-19T17:50:12.381Z,13.74
2023-04-19T17:52:39.942Z,13.66
2023-04-19T17:55:07.680Z,13.58
2023-04-19T17:57:34.962Z,13.72
2023-04-19T18:00:07.807Z,13.87
2023-04-19T18:02:38.027Z,13.67
2023-04-19T18:05:05.602Z,13.65
2023-04-19T18:07:32.702Z,13.67
2023-04-19T18:09:59.785Z,13.78
2023-04-19T18:12:27.823Z,13.73
2023-04-19T18:14:55.182Z,13.69
2023-04-19T18:17:22.241Z,13.67
2023-04-19T18:19:49.902Z,13.52
2023-04-19T18:22:16.988Z,13.32
2023-04-19T18:24:47.514Z,13.44
2023-04-19T18:27:17.770Z,13.24
2023-04-19T18:29:44.832Z,13.26
2023-04-19T18:32:11.921Z,13.29
2023-04-19T18:34:39.132Z,13.26
2023-04-19T18:37:17.272Z,13.12
2023-04-19T18:39:44.751Z,13.05
2023-04-19T18:42:12.130Z,13.04
2023-04-19T18:44:52.777Z,13.01
2023-04-19T18:47:20.774Z,13.09
2023-04-19T18:50:02.790Z,13.09
2023-04-19T18:52:33.310Z,13.15
2023-04-19T18:55:00.817Z,13.07
2023-04-19T18:57:30.495Z,13.02
2023-04-19T19:00:01.677Z,13.00
2023-04-19T19:02:34.230Z,12.83
2023-04-19T19:05:02.570Z,12.83
2023-04-19T19:10:03.957Z,12.69
2023-04-19T19:12:36.898Z,12.79
2023-04-19T19:15:04.663Z,12.69
2023-04-19T19:17:32.332Z,12.73
2023-04-19T19:19:59.419Z,12.61
2023-04-19T19:22:29.093Z,12.70
2023-04-19T19:24:56.912Z,12.75
2023-04-19T19:27:24.563Z,12.61
2023-04-19T19:29:51.676Z,12.59
2023-04-19T19:32:19.444Z,12.59
2023-04-19T19:34:55.647Z,12.60
2023-04-19T19:37:26.646Z,12.46
2023-04-19T19:39:56.220Z,12.36
2023-04-19T19:42:26.637Z,12.35
2023-04-19T19:44:55.432Z,12.24
2023-04-19T19:47:24.141Z,12.19
2023-04-19T19:52:22.470Z,12.32
2023-04-19T19:54:49.557Z,12.29
2023-04-19T19:59:51.604Z,12.29
2023-04-19T20:02:22.477Z,12.33
2023-04-19T20:04:50.249Z,12.25
2023-04-19T20:07:37.257Z,12.18
2023-04-19T20:10:12.103Z,12.25
2023-04-19T20:12:43.760Z,12.00
2023-04-19T20:15:14.327Z,11.79
2023-04-19T20:17:41.636Z,11.68
2023-04-19T20:20:11.094Z,11.59
2023-04-19T20:22:38.592Z,11.52
2023-04-19T20:25:06.750Z,11.36
2023-04-19T20:27:33.965Z,11.39
2023-04-19T20:30:01.206Z,11.19
2023-04-19T20:32:32.904Z,11.25
2023-04-19T20:35:00.246Z,11.16
2023-04-19T20:37:27.832Z,11.03
2023-04-19T20:39:57.976Z,11.08
2023-04-19T20:42:25.305Z,10.97
2023-04-19T20:44:52.664Z,11.12
2023-04-19T20:47:19.970Z,11.15
2023-04-19T20:49:47.238Z,11.06
2023-04-19T20:52:14.512Z,11.13
2023-04-19T20:54:41.535Z,10.95
2023-04-19T20:57:10.009Z,10.97
2023-04-19T20:59:37.131Z,11.00
2023-04-19T21:02:04.569Z,10.80
2023-04-19T21:04:32.106Z,10.92
2023-04-19T21:07:00.913Z,10.74
2023-04-19T21:09:31.320Z,10.69
2023-04-19T21:11:58.590Z,10.81
2023-04-19T21:14:25.670Z,10.77
2023-04-19T21:16:52.984Z,10.64
2023-04-19T21:19:20.953Z,10.74
2023-04-19T21:21:50.565Z,10.72
2023-04-19T21:24:20.946Z,10.65
2023-04-19T21:26:48.822Z,10.64
2023-04-19T21:29:16.462Z,10.61
2023-04-19T21:31:46.328Z,10.62
2023-04-19T21:34:14.118Z,10.50
2023-04-19T21:36:41.291Z,10.58
2023-04-19T21:39:08.915Z,10.54
2023-04-19T21:41:37.650Z,10.47
2023-04-19T21:44:05.113Z,10.34
2023-04-19T21:46:32.341Z,10.33
2023-04-19T21:48:59.600Z,10.42
2023-04-19T21:51:27.769Z,10.29
2023-04-19T21:53:54.916Z,10.40
2023-04-19T21:56:22.412Z,10.24
2023-04-19T21:58:49.531Z,10.31
2023-04-19T22:01:19.394Z,10.17
2023-04-19T22:03:47.734Z,10.32
2023-04-19T22:06:17.243Z,10.33
2023-04-19T22:08:45.232Z,10.25
2023-04-19T22:11:12.668Z,10.14
2023-04-19T22:13:39.842Z,10.19
2023-04-19T22:16:07.209Z,9.98
2023-04-19T22:18:35.864Z,10.13
2023-04-19T22:21:03.239Z,10.11
2023-04-19T22:23:30.239Z,9.87
2023-04-19T22:25:57.271Z,10.05
2023-04-19T22:28:24.496Z,10.03
2023-04-19T22:30:51.812Z,10.00
2023-04-19T22:33:20.116Z,9.99
2023-04-19T22:35:47.151Z,9.95
2023-04-19T22:38:14.482Z,9.89
2023-04-19T22:40:42.615Z,9.91
2023-04-19T22:43:09.727Z,9.98
2023-04-19T22:45:36.791Z,9.86
2023-04-19T22:48:04.531Z,9.82
2023-04-19T22:50:31.906Z,9.87
2023-04-19T22:52:59.288Z,9.75
2023-04-19T22:55:26.468Z,9.81
2023-04-19T22:57:54.827Z,9.82
2023-04-19T23:00:31.446Z,9.70
2023-04-19T23:02:58.915Z,9.45
2023-04-19T23:05:29.824Z,9.89
2023-04-19T23:08:03.026Z,9.88
2023-04-19T23:10:31.851Z,9.83
2023-04-19T23:12:58.936Z,9.86
2023-04-19T23:15:26.272Z,9.81
2023-04-19T23:17:53.493Z,9.80
2023-04-19T23:20:22.003Z,9.82
2023-04-19T23:22:49.305Z,9.68
2023-04-19T23:25:16.646Z,9.82
2023-04-19T23:27:43.812Z,9.81
2023-04-19T23:30:11.314Z,9.57
2023-04-19T23:32:38.511Z,9.71
2023-04-19T23:35:06.744Z,9.72
2023-04-19T23:37:33.892Z,9.64
2023-04-19T23:40:01.304Z,9.47
2023-04-19T23:42:30.372Z,9.56
2023-04-19T23:44:57.777Z,9.49
2023-04-19T23:47:24.981Z,9.52
2023-04-19T23:49:52.053Z,9.44
2023-04-19T23:52:22.728Z,9.45
2023-04-19T23:54:49.983Z,9.32
2023-04-19T23:57:18.529Z,9.23
2023-04-19T23:59:45.785Z,9.22
